KCIU/CIU METAR and TAF weather

Enter ICAO airport designator
Station Type Date Time Source
KCIU METAR 2022/06/28 15:08 UTC NOAA

KCIU 281508Z AUTO 22009G17KT 10SM VCTS FEW080 20/13 A3007 RMK AO2 LTG DSNT W TSB02


Station Type Date Time Source
KCIU Decoded METAR 2022/06/28 15:08 UTC NOAA

Sault Ste Marie, Chippewa County International Airport, MI, United States (KCIU) 46-15N 084-28W
Jun 28, 2022 - 11:08 AM EDT / 2022.06.28 1508 UTC
Wind: from the SW (220 degrees) at 10 MPH (9 KT) gusting to 20 MPH (17 KT):0
Visibility: 10 mile(s):0
Sky conditions: mostly clear
Weather: thunder in the vicinity; Lightning observed
Temperature: 68 F (20 C)
Dew Point: 55 F (13 C)
Relative Humidity: 64%
Pressure (altimeter): 30.07 in. Hg (1018 hPa)
ob: KCIU 281508Z AUTO 22009G17KT 10SM VCTS FEW080 20/13 A3007 RMK AO2 LTG DSNT W TSB02
cycle: 15

Station Type Date Time Source
KCIU TAF UTC NOAA

Error!

Example: see airport list